createdAt,value
2023-08-17T00:01:08.801Z,19.27
2023-08-17T00:03:35.389Z,19.12
2023-08-17T00:06:01.938Z,19.27
2023-08-17T00:08:28.312Z,19.25
2023-08-17T00:10:54.710Z,19.21
2023-08-17T00:13:21.081Z,19.28
2023-08-17T00:15:47.492Z,19.29
2023-08-17T00:18:13.904Z,19.26
2023-08-17T00:20:40.259Z,19.17
2023-08-17T00:23:06.633Z,19.24
2023-08-17T00:25:33.061Z,19.16
2023-08-17T00:27:59.685Z,19.24
2023-08-17T00:30:26.035Z,19.21
2023-08-17T00:32:52.458Z,19.25
2023-08-17T00:35:19.616Z,19.24
2023-08-17T00:37:46.017Z,19.22
2023-08-17T00:40:12.815Z,19.22
2023-08-17T00:42:39.253Z,19.19
2023-08-17T00:45:06.201Z,19.17
2023-08-17T00:47:32.905Z,19.18
2023-08-17T00:50:00.345Z,19.05
2023-08-17T00:52:26.948Z,19.19
2023-08-17T00:54:53.488Z,19.06
2023-08-17T00:57:20.924Z,19.21
2023-08-17T00:59:59.443Z,19.13
2023-08-17T01:02:32.018Z,19.15
2023-08-17T01:04:59.090Z,19.17
2023-08-17T01:07:27.093Z,18.98
2023-08-17T01:09:53.992Z,19.10
2023-08-17T01:12:37.321Z,19.09
2023-08-17T01:15:22.087Z,19.08
2023-08-17T01:18:04.256Z,19.15
2023-08-17T01:20:32.130Z,19.09
2023-08-17T01:23:06.131Z,19.14
2023-08-17T01:25:37.222Z,19.08
2023-08-17T01:28:05.341Z,19.14
2023-08-17T01:30:43.179Z,19.14
2023-08-17T01:33:12.191Z,19.13
2023-08-17T01:36:06.427Z,19.16
2023-08-17T01:38:36.730Z,19.12
2023-08-17T01:41:04.907Z,19.14
2023-08-17T01:43:31.864Z,19.18
2023-08-17T01:46:00.096Z,19.10
2023-08-17T01:48:26.547Z,19.08
2023-08-17T01:50:52.961Z,19.08
2023-08-17T01:53:20.749Z,19.11
2023-08-17T01:55:47.146Z,19.16
2023-08-17T01:58:13.552Z,19.03
2023-08-17T02:00:40.192Z,19.11
2023-08-17T02:03:06.636Z,19.07
2023-08-17T02:05:33.295Z,19.08
2023-08-17T02:07:59.675Z,19.04
2023-08-17T02:10:28.553Z,19.07
2023-08-17T02:13:01.833Z,19.03
2023-08-17T02:15:32.338Z,19.04
2023-08-17T02:18:02.099Z,19.11
2023-08-17T02:20:29.112Z,19.07
2023-08-17T02:22:55.530Z,19.05
2023-08-17T02:25:22.918Z,19.11
2023-08-17T02:27:51.281Z,19.11
2023-08-17T02:30:17.674Z,19.07
2023-08-17T02:32:44.070Z,19.10
2023-08-17T02:35:10.793Z,19.08
2023-08-17T02:37:37.223Z,19.06
2023-08-17T02:40:05.355Z,19.01
2023-08-17T02:42:31.720Z,19.05
2023-08-17T02:44:58.117Z,18.94
2023-08-17T02:47:24.777Z,19.01
2023-08-17T02:49:51.597Z,18.99
2023-08-17T02:52:18.020Z,18.97
2023-08-17T02:54:44.426Z,18.98
2023-08-17T02:57:10.942Z,18.98
2023-08-17T02:59:37.371Z,18.97
2023-08-17T03:02:05.312Z,18.95
2023-08-17T03:04:31.687Z,18.93
2023-08-17T03:06:58.105Z,18.96
2023-08-17T03:09:24.470Z,18.94
2023-08-17T03:11:50.856Z,18.93
2023-08-17T03:14:17.400Z,18.92
2023-08-17T03:16:43.835Z,18.86
2023-08-17T03:19:12.219Z,18.87
2023-08-17T03:21:40.885Z,18.86
2023-08-17T03:24:08.385Z,18.90
2023-08-17T03:26:34.834Z,18.83
2023-08-17T03:29:01.500Z,18.85
2023-08-17T03:31:27.855Z,18.90
2023-08-17T03:33:56.593Z,18.88
2023-08-17T03:36:23.548Z,18.90
2023-08-17T03:38:50.969Z,18.88
2023-08-17T03:41:19.597Z,18.94
2023-08-17T03:43:46.499Z,18.81
2023-08-17T03:46:13.998Z,18.90
2023-08-17T03:48:40.379Z,18.85
2023-08-17T03:51:06.873Z,18.86
2023-08-17T03:53:33.252Z,18.88
2023-08-17T03:55:59.795Z,18.83
2023-08-17T03:58:27.829Z,18.91
2023-08-17T04:00:54.499Z,18.95
2023-08-17T04:03:26.690Z,18.95
2023-08-17T04:05:53.136Z,18.98
2023-08-17T04:08:20.927Z,18.92
2023-08-17T04:10:47.400Z,18.93
2023-08-17T04:13:13.756Z,18.95
2023-08-17T04:15:40.106Z,18.95
2023-08-17T04:18:06.631Z,18.83
2023-08-17T04:20:33.068Z,18.87
2023-08-17T04:22:59.446Z,18.82
2023-08-17T04:25:26.419Z,18.93
2023-08-17T04:27:52.837Z,18.91
2023-08-17T04:30:19.655Z,18.93
2023-08-17T04:32:55.135Z,18.88
2023-08-17T04:35:22.113Z,18.90
2023-08-17T04:37:48.579Z,18.80
2023-08-17T04:40:15.612Z,18.87
2023-08-17T04:42:43.141Z,18.83
2023-08-17T04:45:09.968Z,18.83
2023-08-17T04:47:40.774Z,18.77
2023-08-17T04:50:07.738Z,18.82
2023-08-17T04:52:35.157Z,18.79
2023-08-17T04:55:02.742Z,18.79
2023-08-17T04:57:31.554Z,18.81
2023-08-17T04:59:58.860Z,18.71
2023-08-17T05:02:25.476Z,18.69
2023-08-17T05:04:52.753Z,18.72
2023-08-17T05:07:19.407Z,18.72
2023-08-17T05:09:46.605Z,18.66
2023-08-17T05:12:14.314Z,18.77
2023-08-17T05:14:40.682Z,18.74
2023-08-17T05:17:07.049Z,18.64
2023-08-17T05:19:33.453Z,18.73
2023-08-17T05:22:00.006Z,18.77
2023-08-17T05:24:26.706Z,18.78
2023-08-17T05:26:53.115Z,18.81
2023-08-17T05:29:19.498Z,18.83
2023-08-17T05:31:46.517Z,18.77
2023-08-17T05:34:14.124Z,18.84
2023-08-17T05:36:41.999Z,18.83
2023-08-17T05:39:08.737Z,18.84
2023-08-17T05:41:35.234Z,18.88
2023-08-17T05:44:01.737Z,18.91
2023-08-17T05:46:28.146Z,18.84
2023-08-17T05:48:54.588Z,18.81
2023-08-17T05:51:21.042Z,18.88
2023-08-17T05:53:47.393Z,18.89
2023-08-17T05:56:13.793Z,18.95
2023-08-17T05:58:41.962Z,18.96
2023-08-17T06:01:09.758Z,18.96
2023-08-17T06:03:37.115Z,18.92
2023-08-17T06:06:04.171Z,18.89
2023-08-17T06:08:30.963Z,18.82
2023-08-17T06:10:57.335Z,18.92
2023-08-17T06:13:23.823Z,18.98
2023-08-17T06:15:50.526Z,18.99
2023-08-17T06:18:17.124Z,18.97
2023-08-17T06:20:43.762Z,18.89
2023-08-17T06:23:10.160Z,18.96
2023-08-17T06:25:36.547Z,18.97
2023-08-17T06:28:03.652Z,18.93
2023-08-17T06:30:30.045Z,18.87
2023-08-17T06:32:56.475Z,18.82
2023-08-17T06:35:22.966Z,18.97
2023-08-17T06:37:49.417Z,19.04
2023-08-17T06:40:15.761Z,19.03
2023-08-17T06:42:42.128Z,19.02
2023-08-17T06:45:08.830Z,19.02
2023-08-17T06:47:35.302Z,19.04
2023-08-17T06:50:01.697Z,19.01
2023-08-17T06:52:28.124Z,19.03
2023-08-17T06:54:54.549Z,18.94
2023-08-17T06:57:22.654Z,19.05
2023-08-17T06:59:49.136Z,19.08
2023-08-17T07:02:15.597Z,19.08
2023-08-17T07:04:42.013Z,19.14
2023-08-17T07:07:08.462Z,19.16
2023-08-17T07:09:35.384Z,19.18
2023-08-17T07:12:01.731Z,19.23
2023-08-17T07:14:29.187Z,19.18
2023-08-17T07:16:55.556Z,19.18
2023-08-17T07:19:31.433Z,19.21
2023-08-17T07:22:09.675Z,19.22
2023-08-17T07:24:36.146Z,19.24
2023-08-17T07:27:02.538Z,19.21
2023-08-17T07:29:28.911Z,19.20
2023-08-17T07:31:55.476Z,19.20
2023-08-17T07:34:22.021Z,19.06
2023-08-17T07:36:48.366Z,19.12
2023-08-17T07:39:14.745Z,19.23
2023-08-17T07:41:41.124Z,19.16
2023-08-17T07:44:07.541Z,19.23
2023-08-17T07:46:33.897Z,19.28
2023-08-17T07:49:00.326Z,19.26
2023-08-17T07:51:26.686Z,19.27
2023-08-17T07:53:53.045Z,19.30
2023-08-17T07:56:19.539Z,19.20
2023-08-17T07:58:45.938Z,19.22
2023-08-17T08:01:12.441Z,19.34
2023-08-17T08:03:38.859Z,19.21
2023-08-17T08:06:05.240Z,19.20
2023-08-17T08:08:31.626Z,19.33
2023-08-17T08:10:58.059Z,19.39
2023-08-17T08:13:24.473Z,19.42
2023-08-17T08:15:50.894Z,19.39
2023-08-17T08:18:17.469Z,19.39
2023-08-17T08:20:43.921Z,19.29
2023-08-17T08:23:10.313Z,19.26
2023-08-17T08:25:36.680Z,19.39
2023-08-17T08:28:03.244Z,19.32
2023-08-17T08:30:29.644Z,19.47
2023-08-17T08:32:58.939Z,19.50
2023-08-17T08:35:25.472Z,19.56
2023-08-17T08:37:52.407Z,19.52
2023-08-17T08:40:19.088Z,19.57
2023-08-17T08:42:45.695Z,19.60
2023-08-17T08:45:12.196Z,19.59
2023-08-17T08:47:39.146Z,19.46
2023-08-17T08:50:06.339Z,19.55
2023-08-17T08:52:38.871Z,19.49
2023-08-17T08:55:28.182Z,19.55
2023-08-17T08:57:55.832Z,19.49
2023-08-17T09:00:23.326Z,19.48
2023-08-17T09:02:50.555Z,19.49
2023-08-17T09:05:17.481Z,19.42
2023-08-17T09:07:44.527Z,19.52
2023-08-17T09:10:11.599Z,19.50
2023-08-17T09:12:41.117Z,19.51
2023-08-17T09:15:08.877Z,19.52
2023-08-17T09:17:35.705Z,19.52
2023-08-17T09:20:02.289Z,19.53
2023-08-17T09:22:42.739Z,19.59
2023-08-17T09:25:22.682Z,19.45
2023-08-17T09:27:49.164Z,19.49
2023-08-17T09:30:19.531Z,19.53
2023-08-17T09:32:48.576Z,19.58
2023-08-17T09:35:15.017Z,19.56
2023-08-17T09:37:41.411Z,19.57
2023-08-17T09:40:09.385Z,19.71
2023-08-17T09:42:36.446Z,19.76
2023-08-17T09:45:03.484Z,19.80
2023-08-17T09:47:30.424Z,19.84
2023-08-17T09:49:57.014Z,19.85
2023-08-17T09:52:25.259Z,19.75
2023-08-17T09:54:55.486Z,19.88
2023-08-17T09:57:23.295Z,19.84
2023-08-17T09:59:54.791Z,19.82
2023-08-17T10:02:27.470Z,19.87
2023-08-17T10:04:58.509Z,19.88
2023-08-17T10:07:33.296Z,19.79
2023-08-17T10:10:05.349Z,19.91
2023-08-17T10:12:39.020Z,19.91
2023-08-17T10:15:09.237Z,19.95
2023-08-17T10:17:47.295Z,19.95
2023-08-17T10:20:15.317Z,19.89
2023-08-17T10:22:52.743Z,20.00
2023-08-17T10:25:21.126Z,19.73
2023-08-17T10:27:49.869Z,20.00
2023-08-17T10:30:16.390Z,19.78
2023-08-17T10:32:46.425Z,20.08
2023-08-17T10:35:14.719Z,20.04
2023-08-17T10:37:41.760Z,20.11
2023-08-17T10:40:14.664Z,20.15
2023-08-17T10:42:41.720Z,20.20
2023-08-17T10:45:30.382Z,20.26
2023-08-17T10:48:06.651Z,20.34
2023-08-17T10:50:34.068Z,20.41
2023-08-17T10:53:09.429Z,20.40
2023-08-17T10:55:41.143Z,20.43
2023-08-17T11:00:43.212Z,20.31
2023-08-17T11:03:11.467Z,20.47
2023-08-17T11:05:54.660Z,20.48
2023-08-17T11:08:29.388Z,20.47
2023-08-17T11:11:13.708Z,20.46
2023-08-17T11:13:41.908Z,20.41
2023-08-17T11:16:12.767Z,20.41
2023-08-17T11:18:42.381Z,20.33
2023-08-17T11:21:10.322Z,20.45
2023-08-17T11:23:38.431Z,20.61
2023-08-17T11:26:05.951Z,20.63
2023-08-17T11:28:42.547Z,20.69
2023-08-17T11:31:13.983Z,20.81
2023-08-17T11:33:41.136Z,20.74
2023-08-17T11:36:09.588Z,21.02
2023-08-17T11:38:39.045Z,21.19
2023-08-17T11:41:07.504Z,21.26
2023-08-17T11:43:34.395Z,21.31
2023-08-17T11:46:02.117Z,21.32
2023-08-17T11:48:29.434Z,21.31
2023-08-17T11:50:56.293Z,21.27
2023-08-17T11:53:23.026Z,21.26
2023-08-17T11:55:55.599Z,21.21
2023-08-17T11:58:44.021Z,21.27
2023-08-17T12:01:12.673Z,21.18
2023-08-17T12:03:40.898Z,21.27
2023-08-17T12:06:07.877Z,21.83
2023-08-17T12:08:35.025Z,22.32
2023-08-17T12:11:03.037Z,22.63
2023-08-17T12:13:36.229Z,22.62
2023-08-17T12:16:03.322Z,22.56
2023-08-17T12:18:32.699Z,22.88
2023-08-17T12:20:59.137Z,22.85
2023-08-17T12:23:25.586Z,22.90
2023-08-17T12:25:55.981Z,22.98
2023-08-17T12:28:24.085Z,22.98
2023-08-17T12:30:59.266Z,23.22
2023-08-17T12:33:25.678Z,23.44
2023-08-17T12:35:52.108Z,23.39
2023-08-17T12:38:18.517Z,23.55
2023-08-17T12:40:44.963Z,23.85
2023-08-17T12:43:15.298Z,24.06
2023-08-17T12:45:42.332Z,23.97
2023-08-17T12:48:08.749Z,23.97
2023-08-17T12:50:35.269Z,24.08
2023-08-17T12:53:01.646Z,23.89
2023-08-17T12:55:27.998Z,23.90
2023-08-17T12:57:54.418Z,23.99
2023-08-17T13:00:20.774Z,24.00
2023-08-17T13:02:50.202Z,23.75
2023-08-17T13:05:16.805Z,23.80
2023-08-17T13:07:43.473Z,23.96
2023-08-17T13:10:10.000Z,24.00
2023-08-17T13:12:36.454Z,24.07
2023-08-17T13:15:02.941Z,24.18
2023-08-17T13:17:29.383Z,24.06
2023-08-17T13:19:55.780Z,24.23
2023-08-17T13:22:22.139Z,24.26
2023-08-17T13:24:48.644Z,24.26
2023-08-17T13:27:15.034Z,24.14
2023-08-17T13:29:41.420Z,24.14
2023-08-17T13:32:07.918Z,23.92
2023-08-17T13:34:34.275Z,23.80
2023-08-17T13:37:00.677Z,23.66
2023-08-17T13:39:27.573Z,23.60
2023-08-17T13:41:53.934Z,23.59
2023-08-17T13:44:20.300Z,23.63
2023-08-17T13:46:46.676Z,23.65
2023-08-17T13:49:13.024Z,23.73
2023-08-17T13:51:39.402Z,23.75
2023-08-17T13:54:05.787Z,23.65
2023-08-17T13:56:32.270Z,23.76
2023-08-17T13:58:58.624Z,23.83
2023-08-17T14:01:25.520Z,23.98
2023-08-17T14:03:52.275Z,24.08
2023-08-17T14:06:18.796Z,24.16
2023-08-17T14:08:45.305Z,23.97
2023-08-17T14:11:11.789Z,24.18
2023-08-17T14:13:39.053Z,23.96
2023-08-17T14:16:06.015Z,24.07
2023-08-17T14:18:32.545Z,23.97
2023-08-17T14:20:58.928Z,23.75
2023-08-17T14:23:25.334Z,23.67
2023-08-17T14:25:53.083Z,23.57
2023-08-17T14:28:19.936Z,23.44
2023-08-17T14:30:52.632Z,23.35
2023-08-17T14:33:19.456Z,23.39
2023-08-17T14:35:45.981Z,23.22
2023-08-17T14:38:14.278Z,23.31
2023-08-17T14:40:45.453Z,23.26
2023-08-17T14:43:14.766Z,23.14
2023-08-17T14:45:44.703Z,23.11
2023-08-17T14:48:11.203Z,23.03
2023-08-17T14:50:39.050Z,22.98
2023-08-17T14:53:08.539Z,22.93
2023-08-17T14:55:35.654Z,22.97
2023-08-17T14:58:03.691Z,22.94
2023-08-17T15:00:33.493Z,22.93
2023-08-17T15:03:24.414Z,22.94
2023-08-17T15:05:51.918Z,22.94
2023-08-17T15:08:18.541Z,22.94
2023-08-17T15:10:44.975Z,22.84
2023-08-17T15:13:11.689Z,22.84
2023-08-17T15:15:38.317Z,22.91
2023-08-17T15:18:05.046Z,22.75
2023-08-17T15:20:31.851Z,22.89
2023-08-17T15:22:58.462Z,22.80
2023-08-17T15:25:24.805Z,22.88
2023-08-17T15:27:51.184Z,22.86
2023-08-17T15:30:17.805Z,22.84
2023-08-17T15:32:44.290Z,22.83
2023-08-17T15:35:14.794Z,22.79
2023-08-17T15:37:50.284Z,22.80
2023-08-17T15:40:16.730Z,22.79
2023-08-17T15:42:43.108Z,22.78
2023-08-17T15:45:09.773Z,22.78
2023-08-17T15:47:36.173Z,22.78
2023-08-17T15:50:02.666Z,22.77
2023-08-17T15:52:29.020Z,22.74
2023-08-17T15:54:55.446Z,22.60
2023-08-17T15:57:22.304Z,22.71
2023-08-17T15:59:51.086Z,22.71
2023-08-17T16:02:18.362Z,22.69
2023-08-17T16:04:44.749Z,22.70
2023-08-17T16:07:11.221Z,22.71
2023-08-17T16:09:38.617Z,22.70
2023-08-17T16:12:05.409Z,22.66
2023-08-17T16:14:32.069Z,22.63
2023-08-17T16:16:58.445Z,22.71
2023-08-17T16:19:24.978Z,22.71
2023-08-17T16:21:51.629Z,22.70
2023-08-17T16:24:17.973Z,22.69
2023-08-17T16:26:44.329Z,22.60
2023-08-17T16:29:10.667Z,22.63
2023-08-17T16:31:37.234Z,22.58
2023-08-17T16:34:03.933Z,22.61
2023-08-17T16:36:35.875Z,22.61
2023-08-17T16:39:02.671Z,22.62
2023-08-17T16:41:29.029Z,22.54
2023-08-17T16:43:55.869Z,22.63
2023-08-17T16:46:23.120Z,22.63
2023-08-17T16:48:49.516Z,22.62
2023-08-17T16:51:15.895Z,22.46
2023-08-17T16:53:50.306Z,22.57
2023-08-17T16:56:17.458Z,22.47
2023-08-17T16:58:43.856Z,22.50
2023-08-17T17:01:14.970Z,22.51
2023-08-17T17:03:42.919Z,22.49
2023-08-17T17:06:09.621Z,22.47
2023-08-17T17:08:36.009Z,22.44
2023-08-17T17:11:02.437Z,22.41
2023-08-17T17:13:28.841Z,22.41
2023-08-17T17:15:55.362Z,22.33
2023-08-17T17:18:21.842Z,22.46
2023-08-17T17:20:48.338Z,22.47
2023-08-17T17:23:14.869Z,22.46
2023-08-17T17:25:41.409Z,22.44
2023-08-17T17:28:07.909Z,22.35
2023-08-17T17:30:34.395Z,22.30
2023-08-17T17:33:00.959Z,22.31
2023-08-17T17:35:27.330Z,22.24
2023-08-17T17:37:53.778Z,22.30
2023-08-17T17:40:20.181Z,22.31
2023-08-17T17:42:46.566Z,22.28
2023-08-17T17:45:13.009Z,22.17
2023-08-17T17:47:39.538Z,22.15
2023-08-17T17:50:07.776Z,22.11
2023-08-17T17:52:34.724Z,22.10
2023-08-17T17:55:01.284Z,22.02
2023-08-17T17:57:28.067Z,22.03
2023-08-17T17:59:55.473Z,21.98
2023-08-17T18:02:25.733Z,21.94
2023-08-17T18:04:52.850Z,21.85
2023-08-17T18:07:19.599Z,21.86
2023-08-17T18:09:46.020Z,21.75
2023-08-17T18:12:12.520Z,21.84
2023-08-17T18:14:39.315Z,21.77
2023-08-17T18:17:05.978Z,21.72
2023-08-17T18:19:32.374Z,21.66
2023-08-17T18:21:58.922Z,21.64
2023-08-17T18:24:25.338Z,21.62
2023-08-17T18:26:51.800Z,21.56
2023-08-17T18:29:18.454Z,21.48
2023-08-17T18:31:44.980Z,21.48
2023-08-17T18:34:11.908Z,21.43
2023-08-17T18:36:38.426Z,21.41
2023-08-17T18:39:05.201Z,21.33
2023-08-17T18:41:31.721Z,21.33
2023-08-17T18:43:58.223Z,21.29
2023-08-17T18:46:24.755Z,21.27
2023-08-17T18:48:51.447Z,21.18
2023-08-17T18:51:17.892Z,21.18
2023-08-17T18:53:45.410Z,21.12
2023-08-17T18:56:11.788Z,21.16
2023-08-17T18:58:38.188Z,21.05
2023-08-17T19:01:04.541Z,21.07
2023-08-17T19:03:31.424Z,21.06
2023-08-17T19:05:58.151Z,20.96
2023-08-17T19:08:24.570Z,20.89
2023-08-17T19:10:51.021Z,20.89
2023-08-17T19:13:17.429Z,20.80
2023-08-17T19:15:45.899Z,20.72
2023-08-17T19:18:12.410Z,20.76
2023-08-17T19:20:38.959Z,20.60
2023-08-17T19:23:05.426Z,20.65
2023-08-17T19:25:31.960Z,20.64
2023-08-17T19:27:58.466Z,20.63
2023-08-17T19:30:24.983Z,20.57
2023-08-17T19:32:57.331Z,20.57
2023-08-17T19:35:25.891Z,20.65
2023-08-17T19:37:58.357Z,20.56
2023-08-17T19:40:24.812Z,20.60
2023-08-17T19:42:51.394Z,20.61
2023-08-17T19:45:18.296Z,20.56
2023-08-17T19:47:45.571Z,20.46
2023-08-17T19:50:12.072Z,20.45
2023-08-17T19:52:38.505Z,20.38
2023-08-17T19:55:05.800Z,20.36
2023-08-17T19:57:32.489Z,20.31
2023-08-17T19:59:59.005Z,20.32
2023-08-17T20:02:25.761Z,20.29
2023-08-17T20:04:52.214Z,20.32
2023-08-17T20:07:18.674Z,20.28
2023-08-17T20:09:45.079Z,20.21
2023-08-17T20:12:11.830Z,20.24
2023-08-17T20:14:39.615Z,20.16
2023-08-17T20:17:06.039Z,20.09
2023-08-17T20:19:35.454Z,20.10
2023-08-17T20:22:01.899Z,20.12
2023-08-17T20:24:31.488Z,20.11
2023-08-17T20:26:58.022Z,20.03
2023-08-17T20:29:24.405Z,19.98
2023-08-17T20:31:51.166Z,19.96
2023-08-17T20:34:17.589Z,19.91
2023-08-17T20:36:44.020Z,19.94
2023-08-17T20:39:11.551Z,19.88
2023-08-17T20:41:38.462Z,19.90
2023-08-17T20:44:05.135Z,19.83
2023-08-17T20:46:31.734Z,19.83
2023-08-17T20:48:58.281Z,19.80
2023-08-17T20:51:25.651Z,19.93
2023-08-17T20:53:53.352Z,19.87
2023-08-17T20:56:21.084Z,19.88
2023-08-17T20:58:47.616Z,19.90
2023-08-17T21:01:14.169Z,19.78
2023-08-17T21:03:40.608Z,19.82
2023-08-17T21:06:07.381Z,19.73
2023-08-17T21:08:34.621Z,19.71
2023-08-17T21:11:01.820Z,19.65
2023-08-17T21:13:28.370Z,19.53
2023-08-17T21:16:08.391Z,19.62
2023-08-17T21:18:35.691Z,19.60
2023-08-17T21:21:02.798Z,19.57
2023-08-17T21:23:32.210Z,19.51
2023-08-17T21:25:59.917Z,19.52
2023-08-17T21:28:26.527Z,19.47
2023-08-17T21:30:53.096Z,19.48
2023-08-17T21:33:19.512Z,19.39
2023-08-17T21:35:45.925Z,19.40
2023-08-17T21:38:12.437Z,19.40
2023-08-17T21:40:38.817Z,19.36
2023-08-17T21:43:05.312Z,19.30
2023-08-17T21:45:31.714Z,19.26
2023-08-17T21:47:58.456Z,19.30
2023-08-17T21:50:24.951Z,19.32
2023-08-17T21:52:52.122Z,19.26
2023-08-17T21:55:18.654Z,19.32
2023-08-17T21:57:45.490Z,19.27
2023-08-17T22:00:12.385Z,19.33
2023-08-17T22:02:38.887Z,19.32
2023-08-17T22:05:05.686Z,19.29
2023-08-17T22:07:32.639Z,19.24
2023-08-17T22:09:59.165Z,19.29
2023-08-17T22:12:25.627Z,19.27
2023-08-17T22:14:52.577Z,19.20
2023-08-17T22:17:19.009Z,19.22
2023-08-17T22:19:45.350Z,19.20
2023-08-17T22:22:12.725Z,19.24
2023-08-17T22:24:51.028Z,19.27
2023-08-17T22:27:18.663Z,19.23
2023-08-17T22:29:45.085Z,19.29
2023-08-17T22:32:11.541Z,19.25
2023-08-17T22:34:37.957Z,19.24
2023-08-17T22:37:04.396Z,19.18
2023-08-17T22:39:30.952Z,19.09
2023-08-17T22:41:57.374Z,19.12
2023-08-17T22:44:23.800Z,19.09
2023-08-17T22:46:50.257Z,19.09
2023-08-17T22:49:16.688Z,19.02
2023-08-17T22:51:43.050Z,18.97
2023-08-17T22:54:09.983Z,18.86
2023-08-17T22:56:36.382Z,18.97
2023-08-17T22:59:03.208Z,18.93
2023-08-17T23:01:29.725Z,18.86
2023-08-17T23:03:56.204Z,18.88
2023-08-17T23:06:22.656Z,18.84
2023-08-17T23:08:49.110Z,18.89
2023-08-17T23:11:16.386Z,18.97
2023-08-17T23:13:42.937Z,18.85
2023-08-17T23:16:10.367Z,18.97
2023-08-17T23:18:36.776Z,18.93
2023-08-17T23:21:03.535Z,18.88
2023-08-17T23:23:29.951Z,18.82
2023-08-17T23:25:56.473Z,18.87
2023-08-17T23:28:22.932Z,18.76
2023-08-17T23:30:49.375Z,18.90
2023-08-17T23:33:15.914Z,18.82
2023-08-17T23:35:42.555Z,18.80
2023-08-17T23:38:10.530Z,18.87
2023-08-17T23:40:36.972Z,18.80
2023-08-17T23:43:03.487Z,18.75
2023-08-17T23:45:30.006Z,18.63
2023-08-17T23:47:56.443Z,18.65
2023-08-17T23:50:23.021Z,18.75
2023-08-17T23:52:49.502Z,18.68
2023-08-17T23:55:16.197Z,18.69
2023-08-17T23:57:42.761Z,18.60
